sensor_id;sensor_type;location;lat;lon;timestamp;temperature;humidity
20712;DHT22;10517;50.742;4.224;2022-07-24T00:00:21;18.70;99.90
20712;DHT22;10517;50.742;4.224;2022-07-24T00:02:47;18.70;99.90
20712;DHT22;10517;50.742;4.224;2022-07-24T00:05:12;18.70;99.90
20712;DHT22;10517;50.742;4.224;2022-07-24T00:07:38;18.60;99.90
20712;DHT22;10517;50.742;4.224;2022-07-24T00:10:05;18.60;99.90
20712;DHT22;10517;50.742;4.224;2022-07-24T00:12:31;18.60;99.90
20712;DHT22;10517;50.742;4.224;2022-07-24T00:14:57;18.50;99.90
20712;DHT22;10517;50.742;4.224;2022-07-24T00:17:22;18.50;99.90
20712;DHT22;10517;50.742;4.224;2022-07-24T00:19:48;18.40;99.90
20712;DHT22;10517;50.742;4.224;2022-07-24T00:22:14;18.40;99.90
20712;DHT22;10517;50.742;4.224;2022-07-24T00:24:39;18.40;99.90
20712;DHT22;10517;50.742;4.224;2022-07-24T00:27:05;18.40;99.90
20712;DHT22;10517;50.742;4.224;2022-07-24T00:29:31;18.30;99.90
20712;DHT22;10517;50.742;4.224;2022-07-24T00:31:56;18.20;99.90
20712;DHT22;10517;50.742;4.224;2022-07-24T00:34:22;18.20;99.90
20712;DHT22;10517;50.742;4.224;2022-07-24T00:36:48;18.20;99.90
20712;DHT22;10517;50.742;4.224;2022-07-24T00:39:13;18.20;99.90
20712;DHT22;10517;50.742;4.224;2022-07-24T00:41:39;18.10;99.90
20712;DHT22;10517;50.742;4.224;2022-07-24T00:44:09;18.10;99.90
20712;DHT22;10517;50.742;4.224;2022-07-24T00:46:36;18.00;99.90
20712;DHT22;10517;50.742;4.224;2022-07-24T00:49:07;18.10;99.90
20712;DHT22;10517;50.742;4.224;2022-07-24T00:51:34;18.00;99.90
20712;DHT22;10517;50.742;4.224;2022-07-24T00:54:03;18.00;99.90
20712;DHT22;10517;50.742;4.224;2022-07-24T00:56:29;18.00;99.90
20712;DHT22;10517;50.742;4.224;2022-07-24T00:58:55;17.90;99.90
20712;DHT22;10517;50.742;4.224;2022-07-24T01:01:21;17.90;99.90
20712;DHT22;10517;50.742;4.224;2022-07-24T01:03:47;17.90;99.90
20712;DHT22;10517;50.742;4.224;2022-07-24T01:06:13;17.80;99.90
20712;DHT22;10517;50.742;4.224;2022-07-24T01:08:40;17.80;99.90
20712;DHT22;10517;50.742;4.224;2022-07-24T01:11:09;17.80;99.90
20712;DHT22;10517;50.742;4.224;2022-07-24T01:13:35;17.80;99.90
20712;DHT22;10517;50.742;4.224;2022-07-24T01:16:01;17.80;99.90
20712;DHT22;10517;50.742;4.224;2022-07-24T01:18:26;17.70;99.90
20712;DHT22;10517;50.742;4.224;2022-07-24T01:20:52;17.70;99.90
20712;DHT22;10517;50.742;4.224;2022-07-24T01:23:18;17.70;99.90
20712;DHT22;10517;50.742;4.224;2022-07-24T01:25:43;17.70;99.90
20712;DHT22;10517;50.742;4.224;2022-07-24T01:28:09;17.70;99.90
20712;DHT22;10517;50.742;4.224;2022-07-24T01:30:35;17.70;99.90
20712;DHT22;10517;50.742;4.224;2022-07-24T01:33:00;17.60;99.90
20712;DHT22;10517;50.742;4.224;2022-07-24T01:35:26;17.70;99.90
20712;DHT22;10517;50.742;4.224;2022-07-24T01:37:52;17.60;99.90
20712;DHT22;10517;50.742;4.224;2022-07-24T01:40:19;17.60;99.90
20712;DHT22;10517;50.742;4.224;2022-07-24T01:42:47;17.50;99.90
20712;DHT22;10517;50.742;4.224;2022-07-24T01:45:13;17.50;99.90
20712;DHT22;10517;50.742;4.224;2022-07-24T01:47:40;17.50;99.90
20712;DHT22;10517;50.742;4.224;2022-07-24T01:50:06;17.50;99.90
20712;DHT22;10517;50.742;4.224;2022-07-24T01:52:31;17.40;99.90
20712;DHT22;10517;50.742;4.224;2022-07-24T01:54:57;17.40;99.90
20712;DHT22;10517;50.742;4.224;2022-07-24T01:57:23;17.40;99.90
20712;DHT22;10517;50.742;4.224;2022-07-24T01:59:48;17.30;99.90
20712;DHT22;10517;50.742;4.224;2022-07-24T02:02:14;17.30;99.90
20712;DHT22;10517;50.742;4.224;2022-07-24T02:04:40;17.30;99.90
20712;DHT22;10517;50.742;4.224;2022-07-24T02:07:05;17.20;99.90
20712;DHT22;10517;50.742;4.224;2022-07-24T02:09:31;17.20;99.90
20712;DHT22;10517;50.742;4.224;2022-07-24T02:11:56;17.20;99.90
20712;DHT22;10517;50.742;4.224;2022-07-24T02:14:22;17.10;99.90
20712;DHT22;10517;50.742;4.224;2022-07-24T02:16:48;17.10;99.90
20712;DHT22;10517;50.742;4.224;2022-07-24T02:19:13;17.10;99.90
20712;DHT22;10517;50.742;4.224;2022-07-24T02:21:39;17.00;99.90
20712;DHT22;10517;50.742;4.224;2022-07-24T02:24:05;17.00;99.90
20712;DHT22;10517;50.742;4.224;2022-07-24T02:26:31;17.00;99.90
20712;DHT22;10517;50.742;4.224;2022-07-24T02:28:56;17.00;99.90
20712;DHT22;10517;50.742;4.224;2022-07-24T02:31:22;16.90;99.90
20712;DHT22;10517;50.742;4.224;2022-07-24T02:33:48;16.90;99.90
20712;DHT22;10517;50.742;4.224;2022-07-24T02:36:13;16.90;99.90
20712;DHT22;10517;50.742;4.224;2022-07-24T02:38:40;17.00;99.90
20712;DHT22;10517;50.742;4.224;2022-07-24T02:41:06;17.10;99.90
20712;DHT22;10517;50.742;4.224;2022-07-24T02:43:32;17.00;99.90
20712;DHT22;10517;50.742;4.224;2022-07-24T02:45:57;17.00;99.90
20712;DHT22;10517;50.742;4.224;2022-07-24T02:48:23;17.00;99.90
20712;DHT22;10517;50.742;4.224;2022-07-24T02:50:49;17.00;99.90
20712;DHT22;10517;50.742;4.224;2022-07-24T02:53:14;16.90;99.90
20712;DHT22;10517;50.742;4.224;2022-07-24T02:55:40;16.90;99.90
20712;DHT22;10517;50.742;4.224;2022-07-24T02:58:06;16.80;99.90
20712;DHT22;10517;50.742;4.224;2022-07-24T03:00:31;16.80;99.90
20712;DHT22;10517;50.742;4.224;2022-07-24T03:02:57;16.80;99.90
20712;DHT22;10517;50.742;4.224;2022-07-24T03:05:23;16.80;99.90
20712;DHT22;10517;50.742;4.224;2022-07-24T03:07:48;16.70;99.90
20712;DHT22;10517;50.742;4.224;2022-07-24T03:10:14;16.70;99.90
20712;DHT22;10517;50.742;4.224;2022-07-24T03:12:41;16.70;99.90
20712;DHT22;10517;50.742;4.224;2022-07-24T03:15:08;16.60;99.90
20712;DHT22;10517;50.742;4.224;2022-07-24T03:17:33;16.50;99.90
20712;DHT22;10517;50.742;4.224;2022-07-24T03:19:59;16.50;99.90
20712;DHT22;10517;50.742;4.224;2022-07-24T03:22:25;16.50;99.90
20712;DHT22;10517;50.742;4.224;2022-07-24T03:24:51;16.50;99.90
20712;DHT22;10517;50.742;4.224;2022-07-24T03:27:16;16.50;99.90
20712;DHT22;10517;50.742;4.224;2022-07-24T03:29:42;16.50;99.90
20712;DHT22;10517;50.742;4.224;2022-07-24T03:32:08;16.40;99.90
20712;DHT22;10517;50.742;4.224;2022-07-24T03:34:33;16.40;99.90
20712;DHT22;10517;50.742;4.224;2022-07-24T03:36:59;16.40;99.90
20712;DHT22;10517;50.742;4.224;2022-07-24T03:39:24;16.40;99.90
20712;DHT22;10517;50.742;4.224;2022-07-24T03:41:50;16.40;99.90
20712;DHT22;10517;50.742;4.224;2022-07-24T03:44:16;16.30;99.90
20712;DHT22;10517;50.742;4.224;2022-07-24T03:46:41;16.40;99.90
20712;DHT22;10517;50.742;4.224;2022-07-24T03:49:07;16.40;99.90
20712;DHT22;10517;50.742;4.224;2022-07-24T03:51:33;16.40;99.90
20712;DHT22;10517;50.742;4.224;2022-07-24T03:54:01;16.30;99.90
20712;DHT22;10517;50.742;4.224;2022-07-24T03:56:27;16.30;99.90
20712;DHT22;10517;50.742;4.224;2022-07-24T03:58:53;16.20;99.90
20712;DHT22;10517;50.742;4.224;2022-07-24T04:01:20;16.20;99.90
20712;DHT22;10517;50.742;4.224;2022-07-24T04:03:45;16.20;99.90
20712;DHT22;10517;50.742;4.224;2022-07-24T04:06:11;16.20;99.90
20712;DHT22;10517;50.742;4.224;2022-07-24T04:08:37;16.10;99.90
20712;DHT22;10517;50.742;4.224;2022-07-24T04:11:02;16.10;99.90
20712;DHT22;10517;50.742;4.224;2022-07-24T04:13:30;16.10;99.90
20712;DHT22;10517;50.742;4.224;2022-07-24T04:15:56;16.10;99.90
20712;DHT22;10517;50.742;4.224;2022-07-24T04:18:22;16.10;99.90
20712;DHT22;10517;50.742;4.224;2022-07-24T04:20:49;16.10;99.90
20712;DHT22;10517;50.742;4.224;2022-07-24T04:23:15;16.10;99.90
20712;DHT22;10517;50.742;4.224;2022-07-24T04:25:40;16.10;99.90
20712;DHT22;10517;50.742;4.224;2022-07-24T04:28:06;16.20;99.90
20712;DHT22;10517;50.742;4.224;2022-07-24T04:30:32;16.10;99.90
20712;DHT22;10517;50.742;4.224;2022-07-24T04:32:58;16.10;99.90
20712;DHT22;10517;50.742;4.224;2022-07-24T04:35:24;16.20;99.90
20712;DHT22;10517;50.742;4.224;2022-07-24T04:37:50;16.20;99.90
20712;DHT22;10517;50.742;4.224;2022-07-24T04:40:16;16.20;99.90
20712;DHT22;10517;50.742;4.224;2022-07-24T04:42:41;16.40;99.90
20712;DHT22;10517;50.742;4.224;2022-07-24T04:45:07;16.40;99.90
20712;DHT22;10517;50.742;4.224;2022-07-24T04:47:37;16.40;99.90
20712;DHT22;10517;50.742;4.224;2022-07-24T04:50:04;16.40;99.90
20712;DHT22;10517;50.742;4.224;2022-07-24T04:52:30;16.40;99.90
20712;DHT22;10517;50.742;4.224;2022-07-24T04:54:56;16.40;99.90
20712;DHT22;10517;50.742;4.224;2022-07-24T04:57:22;16.50;99.90
20712;DHT22;10517;50.742;4.224;2022-07-24T04:59:48;16.50;99.90
20712;DHT22;10517;50.742;4.224;2022-07-24T05:02:14;16.60;99.90
20712;DHT22;10517;50.742;4.224;2022-07-24T05:04:39;16.70;99.90
20712;DHT22;10517;50.742;4.224;2022-07-24T05:07:06;16.80;99.90
20712;DHT22;10517;50.742;4.224;2022-07-24T05:09:32;16.90;99.90
20712;DHT22;10517;50.742;4.224;2022-07-24T05:11:58;17.00;99.90
20712;DHT22;10517;50.742;4.224;2022-07-24T05:14:23;17.00;99.90
20712;DHT22;10517;50.742;4.224;2022-07-24T05:16:49;17.10;99.90
20712;DHT22;10517;50.742;4.224;2022-07-24T05:19:15;17.20;99.90
20712;DHT22;10517;50.742;4.224;2022-07-24T05:21:40;17.30;99.90
20712;DHT22;10517;50.742;4.224;2022-07-24T05:24:06;17.30;99.90
20712;DHT22;10517;50.742;4.224;2022-07-24T05:26:32;17.30;99.90
20712;DHT22;10517;50.742;4.224;2022-07-24T05:29:02;17.60;99.90
20712;DHT22;10517;50.742;4.224;2022-07-24T05:31:28;17.60;99.90
20712;DHT22;10517;50.742;4.224;2022-07-24T05:33:54;17.60;99.90
20712;DHT22;10517;50.742;4.224;2022-07-24T05:36:20;17.60;99.90
20712;DHT22;10517;50.742;4.224;2022-07-24T05:38:46;17.70;99.90
20712;DHT22;10517;50.742;4.224;2022-07-24T05:41:12;17.80;99.90
20712;DHT22;10517;50.742;4.224;2022-07-24T05:43:38;17.90;99.90
20712;DHT22;10517;50.742;4.224;2022-07-24T05:46:04;18.00;99.90
20712;DHT22;10517;50.742;4.224;2022-07-24T05:48:30;18.10;99.90
20712;DHT22;10517;50.742;4.224;2022-07-24T05:50:55;18.20;99.90
20712;DHT22;10517;50.742;4.224;2022-07-24T05:53:22;18.30;99.90
20712;DHT22;10517;50.742;4.224;2022-07-24T05:55:48;18.40;99.90
20712;DHT22;10517;50.742;4.224;2022-07-24T05:58:14;18.50;99.90
20712;DHT22;10517;50.742;4.224;2022-07-24T06:00:40;18.60;99.90
20712;DHT22;10517;50.742;4.224;2022-07-24T06:03:05;18.60;99.90
20712;DHT22;10517;50.742;4.224;2022-07-24T06:05:31;18.70;99.90
20712;DHT22;10517;50.742;4.224;2022-07-24T06:07:57;18.80;99.90
20712;DHT22;10517;50.742;4.224;2022-07-24T06:10:22;18.70;99.90
20712;DHT22;10517;50.742;4.224;2022-07-24T06:12:48;18.80;99.90
20712;DHT22;10517;50.742;4.224;2022-07-24T06:15:14;18.80;99.90
20712;DHT22;10517;50.742;4.224;2022-07-24T06:17:40;18.90;99.90
20712;DHT22;10517;50.742;4.224;2022-07-24T06:20:07;18.90;99.90
20712;DHT22;10517;50.742;4.224;2022-07-24T06:22:34;18.90;99.90
20712;DHT22;10517;50.742;4.224;2022-07-24T06:25:00;19.00;99.90
20712;DHT22;10517;50.742;4.224;2022-07-24T06:27:25;19.10;99.90
20712;DHT22;10517;50.742;4.224;2022-07-24T06:29:51;19.10;99.90
20712;DHT22;10517;50.742;4.224;2022-07-24T06:32:16;19.20;99.90
20712;DHT22;10517;50.742;4.224;2022-07-24T06:34:42;19.40;99.90
20712;DHT22;10517;50.742;4.224;2022-07-24T06:37:08;19.40;99.90
20712;DHT22;10517;50.742;4.224;2022-07-24T06:39:33;19.50;99.90
20712;DHT22;10517;50.742;4.224;2022-07-24T06:41:59;19.60;99.90
20712;DHT22;10517;50.742;4.224;2022-07-24T06:44:25;19.70;99.90
20712;DHT22;10517;50.742;4.224;2022-07-24T06:46:51;19.70;99.90
20712;DHT22;10517;50.742;4.224;2022-07-24T06:49:16;19.80;99.90
20712;DHT22;10517;50.742;4.224;2022-07-24T06:51:42;19.80;99.90
20712;DHT22;10517;50.742;4.224;2022-07-24T06:54:09;20.00;99.90
20712;DHT22;10517;50.742;4.224;2022-07-24T06:56:34;20.00;99.90
20712;DHT22;10517;50.742;4.224;2022-07-24T06:59:00;20.20;99.90
20712;DHT22;10517;50.742;4.224;2022-07-24T07:01:26;20.30;99.90
20712;DHT22;10517;50.742;4.224;2022-07-24T07:03:52;20.40;99.90
20712;DHT22;10517;50.742;4.224;2022-07-24T07:06:19;20.50;99.90
20712;DHT22;10517;50.742;4.224;2022-07-24T07:08:44;20.60;99.90
20712;DHT22;10517;50.742;4.224;2022-07-24T07:11:10;20.60;99.90
20712;DHT22;10517;50.742;4.224;2022-07-24T07:13:35;20.80;99.90
20712;DHT22;10517;50.742;4.224;2022-07-24T07:16:01;20.90;99.90
20712;DHT22;10517;50.742;4.224;2022-07-24T07:18:27;21.10;99.90
20712;DHT22;10517;50.742;4.224;2022-07-24T07:20:52;21.20;99.90
20712;DHT22;10517;50.742;4.224;2022-07-24T07:23:23;21.20;99.90
20712;DHT22;10517;50.742;4.224;2022-07-24T07:25:51;21.30;99.90
20712;DHT22;10517;50.742;4.224;2022-07-24T07:28:18;21.40;99.90
20712;DHT22;10517;50.742;4.224;2022-07-24T07:30:44;21.50;99.90
20712;DHT22;10517;50.742;4.224;2022-07-24T07:33:10;21.60;99.90
20712;DHT22;10517;50.742;4.224;2022-07-24T07:35:35;21.70;99.90
20712;DHT22;10517;50.742;4.224;2022-07-24T07:38:01;21.80;99.90
20712;DHT22;10517;50.742;4.224;2022-07-24T07:40:27;22.00;99.90
20712;DHT22;10517;50.742;4.224;2022-07-24T07:42:52;22.00;99.90
20712;DHT22;10517;50.742;4.224;2022-07-24T07:45:18;22.10;99.90
20712;DHT22;10517;50.742;4.224;2022-07-24T07:47:43;22.20;99.90
20712;DHT22;10517;50.742;4.224;2022-07-24T07:50:10;22.40;99.90
20712;DHT22;10517;50.742;4.224;2022-07-24T07:52:35;22.50;99.90
20712;DHT22;10517;50.742;4.224;2022-07-24T07:55:02;22.60;99.90
20712;DHT22;10517;50.742;4.224;2022-07-24T07:57:28;22.70;99.90
20712;DHT22;10517;50.742;4.224;2022-07-24T07:59:54;22.80;99.90
20712;DHT22;10517;50.742;4.224;2022-07-24T08:02:19;22.70;99.90
20712;DHT22;10517;50.742;4.224;2022-07-24T08:04:45;22.80;99.90
20712;DHT22;10517;50.742;4.224;2022-07-24T08:07:10;23.00;99.90
20712;DHT22;10517;50.742;4.224;2022-07-24T08:09:36;23.10;99.90
20712;DHT22;10517;50.742;4.224;2022-07-24T08:12:03;23.20;99.90
20712;DHT22;10517;50.742;4.224;2022-07-24T08:14:29;23.20;99.90
20712;DHT22;10517;50.742;4.224;2022-07-24T08:16:55;23.30;99.90
20712;DHT22;10517;50.742;4.224;2022-07-24T08:19:21;23.50;99.90
20712;DHT22;10517;50.742;4.224;2022-07-24T08:21:46;23.70;99.90
20712;DHT22;10517;50.742;4.224;2022-07-24T08:24:12;23.80;99.90
20712;DHT22;10517;50.742;4.224;2022-07-24T08:26:38;24.00;99.90
20712;DHT22;10517;50.742;4.224;2022-07-24T08:29:04;23.90;99.90
20712;DHT22;10517;50.742;4.224;2022-07-24T08:31:30;23.90;99.90
20712;DHT22;10517;50.742;4.224;2022-07-24T08:33:55;23.90;99.90
20712;DHT22;10517;50.742;4.224;2022-07-24T08:36:21;24.10;99.90
20712;DHT22;10517;50.742;4.224;2022-07-24T08:38:47;24.30;99.90
20712;DHT22;10517;50.742;4.224;2022-07-24T08:41:13;24.30;99.90
20712;DHT22;10517;50.742;4.224;2022-07-24T08:43:38;24.40;99.90
20712;DHT22;10517;50.742;4.224;2022-07-24T08:46:08;24.60;99.90
20712;DHT22;10517;50.742;4.224;2022-07-24T08:48:34;24.70;99.90
20712;DHT22;10517;50.742;4.224;2022-07-24T08:51:01;24.70;99.90
20712;DHT22;10517;50.742;4.224;2022-07-24T08:53:27;24.80;99.90
20712;DHT22;10517;50.742;4.224;2022-07-24T08:55:53;25.00;99.90
20712;DHT22;10517;50.742;4.224;2022-07-24T08:58:18;25.10;99.90
20712;DHT22;10517;50.742;4.224;2022-07-24T09:00:45;25.20;99.90
20712;DHT22;10517;50.742;4.224;2022-07-24T09:03:10;25.30;99.90
20712;DHT22;10517;50.742;4.224;2022-07-24T09:05:58;25.40;99.90
20712;DHT22;10517;50.742;4.224;2022-07-24T09:08:24;25.60;99.90
20712;DHT22;10517;50.742;4.224;2022-07-24T09:10:55;25.70;99.90
20712;DHT22;10517;50.742;4.224;2022-07-24T09:13:24;25.80;99.90
20712;DHT22;10517;50.742;4.224;2022-07-24T09:15:50;25.80;99.90
20712;DHT22;10517;50.742;4.224;2022-07-24T09:18:31;25.90;99.90
20712;DHT22;10517;50.742;4.224;2022-07-24T09:20:57;26.00;99.90
20712;DHT22;10517;50.742;4.224;2022-07-24T09:23:23;26.00;99.90
20712;DHT22;10517;50.742;4.224;2022-07-24T09:25:53;26.00;99.90
20712;DHT22;10517;50.742;4.224;2022-07-24T09:28:20;26.00;99.90
20712;DHT22;10517;50.742;4.224;2022-07-24T09:30:47;26.20;99.90
20712;DHT22;10517;50.742;4.224;2022-07-24T09:33:14;26.40;99.90
20712;DHT22;10517;50.742;4.224;2022-07-24T09:35:50;26.40;99.90
20712;DHT22;10517;50.742;4.224;2022-07-24T09:38:20;26.40;99.90
20712;DHT22;10517;50.742;4.224;2022-07-24T09:40:51;26.50;99.90
20712;DHT22;10517;50.742;4.224;2022-07-24T09:43:27;26.60;99.90
20712;DHT22;10517;50.742;4.224;2022-07-24T09:45:55;26.70;99.90
20712;DHT22;10517;50.742;4.224;2022-07-24T09:48:26;26.80;99.90
20712;DHT22;10517;50.742;4.224;2022-07-24T09:50:53;26.90;99.90
20712;DHT22;10517;50.742;4.224;2022-07-24T09:53:22;27.10;99.90
20712;DHT22;10517;50.742;4.224;2022-07-24T09:56:05;27.20;99.90
20712;DHT22;10517;50.742;4.224;2022-07-24T09:58:37;27.40;99.90
20712;DHT22;10517;50.742;4.224;2022-07-24T10:01:04;27.50;99.90
20712;DHT22;10517;50.742;4.224;2022-07-24T10:03:32;27.70;99.90
20712;DHT22;10517;50.742;4.224;2022-07-24T10:06:01;27.90;99.90
20712;DHT22;10517;50.742;4.224;2022-07-24T10:08:27;27.90;99.90
20712;DHT22;10517;50.742;4.224;2022-07-24T10:10:54;27.90;99.90
20712;DHT22;10517;50.742;4.224;2022-07-24T10:13:20;27.90;99.90
20712;DHT22;10517;50.742;4.224;2022-07-24T10:18:52;27.90;99.90
20712;DHT22;10517;50.742;4.224;2022-07-24T10:21:29;28.10;99.90
20712;DHT22;10517;50.742;4.224;2022-07-24T10:24:12;28.20;99.90
20712;DHT22;10517;50.742;4.224;2022-07-24T10:26:44;28.30;99.90
20712;DHT22;10517;50.742;4.224;2022-07-24T10:29:14;28.40;99.90
20712;DHT22;10517;50.742;4.224;2022-07-24T10:31:45;28.40;99.90
20712;DHT22;10517;50.742;4.224;2022-07-24T10:34:20;28.20;99.90
20712;DHT22;10517;50.742;4.224;2022-07-24T10:39:52;28.60;99.90
20712;DHT22;10517;50.742;4.224;2022-07-24T10:42:19;28.70;99.90
20712;DHT22;10517;50.742;4.224;2022-07-24T10:45:15;28.90;99.90
20712;DHT22;10517;50.742;4.224;2022-07-24T10:47:43;28.90;99.90
20712;DHT22;10517;50.742;4.224;2022-07-24T10:50:09;29.00;99.90
20712;DHT22;10517;50.742;4.224;2022-07-24T10:52:35;29.20;99.90
20712;DHT22;10517;50.742;4.224;2022-07-24T10:58:01;29.50;99.90
20712;DHT22;10517;50.742;4.224;2022-07-24T11:00:39;29.60;99.90
20712;DHT22;10517;50.742;4.224;2022-07-24T11:03:29;29.60;99.90
20712;DHT22;10517;50.742;4.224;2022-07-24T11:06:07;29.60;99.90
20712;DHT22;10517;50.742;4.224;2022-07-24T11:08:50;29.70;99.90
20712;DHT22;10517;50.742;4.224;2022-07-24T11:11:20;29.60;99.90
20712;DHT22;10517;50.742;4.224;2022-07-24T11:13:49;29.70;99.90
20712;DHT22;10517;50.742;4.224;2022-07-24T11:21:39;29.80;99.90
20712;DHT22;10517;50.742;4.224;2022-07-24T11:27:06;30.00;99.90
20712;DHT22;10517;50.742;4.224;2022-07-24T11:29:37;30.30;99.90
20712;DHT22;10517;50.742;4.224;2022-07-24T11:32:16;30.60;99.90
20712;DHT22;10517;50.742;4.224;2022-07-24T11:34:47;30.80;99.90
20712;DHT22;10517;50.742;4.224;2022-07-24T11:37:14;30.80;99.90
20712;DHT22;10517;50.742;4.224;2022-07-24T11:39:43;30.80;99.90
20712;DHT22;10517;50.742;4.224;2022-07-24T11:42:11;30.60;99.90
20712;DHT22;10517;50.742;4.224;2022-07-24T11:44:46;31.00;99.90
20712;DHT22;10517;50.742;4.224;2022-07-24T11:47:21;31.30;99.90
20712;DHT22;10517;50.742;4.224;2022-07-24T11:49:53;31.50;99.90
20712;DHT22;10517;50.742;4.224;2022-07-24T11:52:26;31.70;99.90
20712;DHT22;10517;50.742;4.224;2022-07-24T11:54:54;31.90;99.90
20712;DHT22;10517;50.742;4.224;2022-07-24T11:57:26;31.70;99.90
20712;DHT22;10517;50.742;4.224;2022-07-24T11:59:52;31.70;99.90
20712;DHT22;10517;50.742;4.224;2022-07-24T12:02:19;31.50;99.90
20712;DHT22;10517;50.742;4.224;2022-07-24T12:04:46;31.60;99.90
20712;DHT22;10517;50.742;4.224;2022-07-24T12:07:24;31.60;99.90
20712;DHT22;10517;50.742;4.224;2022-07-24T12:09:50;31.70;99.90
20712;DHT22;10517;50.742;4.224;2022-07-24T12:14:50;32.10;99.90
20712;DHT22;10517;50.742;4.224;2022-07-24T12:17:16;32.00;99.90
20712;DHT22;10517;50.742;4.224;2022-07-24T12:19:54;32.10;99.90
20712;DHT22;10517;50.742;4.224;2022-07-24T12:22:21;32.20;99.90
20712;DHT22;10517;50.742;4.224;2022-07-24T12:24:48;32.40;99.90
20712;DHT22;10517;50.742;4.224;2022-07-24T12:27:36;32.70;99.90
20712;DHT22;10517;50.742;4.224;2022-07-24T12:30:04;33.10;99.90
20712;DHT22;10517;50.742;4.224;2022-07-24T12:32:30;33.10;99.90
20712;DHT22;10517;50.742;4.224;2022-07-24T12:34:55;33.10;99.10
20712;DHT22;10517;50.742;4.224;2022-07-24T12:37:22;33.00;99.50
20712;DHT22;10517;50.742;4.224;2022-07-24T12:39:49;33.20;99.90
20712;DHT22;10517;50.742;4.224;2022-07-24T12:42:15;33.00;99.60
20712;DHT22;10517;50.742;4.224;2022-07-24T12:44:43;33.10;99.90
20712;DHT22;10517;50.742;4.224;2022-07-24T12:47:10;33.40;99.30
20712;DHT22;10517;50.742;4.224;2022-07-24T12:49:41;33.40;97.50
20712;DHT22;10517;50.742;4.224;2022-07-24T12:52:25;33.30;98.40
20712;DHT22;10517;50.742;4.224;2022-07-24T12:54:52;33.20;98.60
20712;DHT22;10517;50.742;4.224;2022-07-24T12:57:21;33.60;98.50
20712;DHT22;10517;50.742;4.224;2022-07-24T12:59:49;33.60;97.10
20712;DHT22;10517;50.742;4.224;2022-07-24T13:02:24;33.60;97.20
20712;DHT22;10517;50.742;4.224;2022-07-24T13:04:52;33.70;97.90
20712;DHT22;10517;50.742;4.224;2022-07-24T13:07:20;33.80;97.50
20712;DHT22;10517;50.742;4.224;2022-07-24T13:09:45;34.30;96.60
20712;DHT22;10517;50.742;4.224;2022-07-24T13:12:12;35.10;97.00
20712;DHT22;10517;50.742;4.224;2022-07-24T13:14:38;36.00;96.10
20712;DHT22;10517;50.742;4.224;2022-07-24T13:17:08;37.20;94.00
20712;DHT22;10517;50.742;4.224;2022-07-24T13:19:36;38.00;89.40
20712;DHT22;10517;50.742;4.224;2022-07-24T13:22:02;38.70;91.20
20712;DHT22;10517;50.742;4.224;2022-07-24T13:24:28;39.70;84.90
20712;DHT22;10517;50.742;4.224;2022-07-24T13:26:55;40.70;83.00
20712;DHT22;10517;50.742;4.224;2022-07-24T13:29:21;41.80;82.90
20712;DHT22;10517;50.742;4.224;2022-07-24T13:31:47;42.70;77.50
20712;DHT22;10517;50.742;4.224;2022-07-24T13:34:13;43.00;69.90
20712;DHT22;10517;50.742;4.224;2022-07-24T13:36:38;43.50;67.30
20712;DHT22;10517;50.742;4.224;2022-07-24T13:39:06;42.60;63.20
20712;DHT22;10517;50.742;4.224;2022-07-24T13:41:32;42.90;62.90
20712;DHT22;10517;50.742;4.224;2022-07-24T13:43:58;43.40;60.40
20712;DHT22;10517;50.742;4.224;2022-07-24T13:46:23;44.30;61.20
20712;DHT22;10517;50.742;4.224;2022-07-24T13:48:49;45.30;62.80
20712;DHT22;10517;50.742;4.224;2022-07-24T13:51:17;46.00;57.80
20712;DHT22;10517;50.742;4.224;2022-07-24T13:53:43;46.50;56.20
20712;DHT22;10517;50.742;4.224;2022-07-24T13:56:09;47.10;52.90
20712;DHT22;10517;50.742;4.224;2022-07-24T13:58:35;47.40;54.00
20712;DHT22;10517;50.742;4.224;2022-07-24T14:01:04;47.30;52.70
20712;DHT22;10517;50.742;4.224;2022-07-24T14:03:30;47.50;52.20
20712;DHT22;10517;50.742;4.224;2022-07-24T14:05:56;47.30;50.10
20712;DHT22;10517;50.742;4.224;2022-07-24T14:08:22;46.60;49.60
20712;DHT22;10517;50.742;4.224;2022-07-24T14:10:47;46.00;50.40
20712;DHT22;10517;50.742;4.224;2022-07-24T14:13:13;46.30;48.20
20712;DHT22;10517;50.742;4.224;2022-07-24T14:15:39;46.60;50.10
20712;DHT22;10517;50.742;4.224;2022-07-24T14:18:04;46.80;49.90
20712;DHT22;10517;50.742;4.224;2022-07-24T14:20:30;46.80;49.40
20712;DHT22;10517;50.742;4.224;2022-07-24T14:22:55;47.30;47.40
20712;DHT22;10517;50.742;4.224;2022-07-24T14:25:21;47.90;47.90
20712;DHT22;10517;50.742;4.224;2022-07-24T14:27:47;47.50;45.00
20712;DHT22;10517;50.742;4.224;2022-07-24T14:30:13;47.10;47.40
20712;DHT22;10517;50.742;4.224;2022-07-24T14:32:39;47.60;47.50
20712;DHT22;10517;50.742;4.224;2022-07-24T14:35:06;47.80;46.00
20712;DHT22;10517;50.742;4.224;2022-07-24T14:37:34;48.30;45.60
20712;DHT22;10517;50.742;4.224;2022-07-24T14:40:00;48.20;45.90
20712;DHT22;10517;50.742;4.224;2022-07-24T14:42:25;48.30;44.70
20712;DHT22;10517;50.742;4.224;2022-07-24T14:44:51;48.60;44.00
20712;DHT22;10517;50.742;4.224;2022-07-24T14:47:17;48.60;42.60
20712;DHT22;10517;50.742;4.224;2022-07-24T14:49:43;48.70;44.40
20712;DHT22;10517;50.742;4.224;2022-07-24T14:52:08;49.40;43.50
20712;DHT22;10517;50.742;4.224;2022-07-24T14:54:34;49.10;41.70
20712;DHT22;10517;50.742;4.224;2022-07-24T14:56:59;48.20;42.10
20712;DHT22;10517;50.742;4.224;2022-07-24T14:59:26;47.50;41.40
20712;DHT22;10517;50.742;4.224;2022-07-24T15:01:52;48.10;43.60
20712;DHT22;10517;50.742;4.224;2022-07-24T15:04:18;48.00;42.80
20712;DHT22;10517;50.742;4.224;2022-07-24T15:06:43;48.10;42.70
20712;DHT22;10517;50.742;4.224;2022-07-24T15:09:09;48.60;42.30
20712;DHT22;10517;50.742;4.224;2022-07-24T15:11:34;48.40;42.10
20712;DHT22;10517;50.742;4.224;2022-07-24T15:14:01;49.10;41.80
20712;DHT22;10517;50.742;4.224;2022-07-24T15:16:27;49.60;41.80
20712;DHT22;10517;50.742;4.224;2022-07-24T15:18:52;50.10;41.00
20712;DHT22;10517;50.742;4.224;2022-07-24T15:21:18;50.10;41.70
20712;DHT22;10517;50.742;4.224;2022-07-24T15:23:44;49.80;40.30
20712;DHT22;10517;50.742;4.224;2022-07-24T15:26:09;50.10;40.30
20712;DHT22;10517;50.742;4.224;2022-07-24T15:28:35;50.40;39.20
20712;DHT22;10517;50.742;4.224;2022-07-24T15:31:01;50.40;38.60
20712;DHT22;10517;50.742;4.224;2022-07-24T15:33:26;50.40;39.10
20712;DHT22;10517;50.742;4.224;2022-07-24T15:35:52;50.40;38.70
20712;DHT22;10517;50.742;4.224;2022-07-24T15:38:17;50.80;37.00
20712;DHT22;10517;50.742;4.224;2022-07-24T15:40:44;50.30;37.40
20712;DHT22;10517;50.742;4.224;2022-07-24T15:43:10;50.40;37.00
20712;DHT22;10517;50.742;4.224;2022-07-24T15:45:36;50.80;36.30
20712;DHT22;10517;50.742;4.224;2022-07-24T15:48:02;50.70;37.70